Time;durP1;ratioP1;P1;durP2;ratioP2;P2;SDS_P1;SDS_P2;PMS_P1;PMS_P2;Temp;Humidity;BMP_temperature;BMP_pressure;BME280_temperature;BME280_humidity;BME280_pressure;Samples;Min_cycle;Max_cycle;Signal;HPM_P1;HPM_P2
2020/12/25 00:00:27;;;;;;;12.13;8.85;;;;;;;5.57;100.00;98193.02;1783527;80;21069;-69
2020/12/25 00:02:55;;;;;;;13.22;9.20;;;;;;;5.56;100.00;98192.18;1783619;80;21920;-70
2020/12/25 00:05:23;;;;;;;12.63;8.48;;;;;;;5.57;100.00;98202.05;1783212;80;21175;-69
2020/12/25 00:07:51;;;;;;;13.35;9.70;;;;;;;5.57;100.00;98190.44;1783524;80;21057;-69
2020/12/25 00:10:18;;;;;;;13.58;9.23;;;;;;;5.57;100.00;98196.89;1783434;80;21813;-69
2020/12/25 00:12:45;;;;;;;11.45;8.90;;;;;;;5.55;100.00;98194.36;1783583;80;21116;-69
2020/12/25 00:15:13;;;;;;;13.83;9.10;;;;;;;5.54;100.00;98201.70;1783172;80;21379;-69
2020/12/25 00:17:40;;;;;;;13.15;9.08;;;;;;;5.54;100.00;98203.44;1783448;80;21080;-69
2020/12/25 00:20:08;;;;;;;10.90;8.68;;;;;;;5.55;100.00;98211.56;1783350;80;21506;-69
2020/12/25 00:22:36;;;;;;;16.70;10.05;;;;;;;5.54;100.00;98201.70;1783442;80;21583;-70
2020/12/25 00:25:03;;;;;;;12.85;9.15;;;;;;;5.55;99.98;98212.41;1783373;80;21131;-69
2020/12/25 00:27:31;;;;;;;16.05;9.13;;;;;;;5.54;99.94;98205.57;1783457;80;21197;-70
2020/12/25 00:29:58;;;;;;;11.63;8.85;;;;;;;5.53;99.83;98204.34;1783379;80;21077;-70
2020/12/25 00:32:26;;;;;;;12.73;8.85;;;;;;;5.53;99.79;98204.34;1783385;80;21278;-69
2020/12/25 00:34:53;;;;;;;13.58;9.25;;;;;;;5.52;99.66;98201.37;1783482;80;21152;-68
2020/12/25 00:37:23;;;;;;;14.33;9.45;;;;;;;5.50;99.66;98205.70;1783372;80;21120;-69
2020/12/25 00:39:50;;;;;;;14.05;9.33;;;;;;;5.50;99.41;98210.41;1783539;80;21365;-69
2020/12/25 00:42:18;;;;;;;13.30;8.85;;;;;;;5.51;99.45;98212.54;1783503;80;21176;-70
2020/12/25 00:44:45;;;;;;;13.95;8.85;;;;;;;5.50;99.29;98220.72;1796506;79;21104;-69
2020/12/25 00:47:13;;;;;;;12.50;8.55;;;;;;;5.49;99.26;98216.46;1799394;79;21123;-69
2020/12/25 00:49:41;;;;;;;12.13;7.87;;;;;;;5.49;99.26;98219.48;1799377;78;21104;-69
2020/12/25 00:52:09;;;;;;;14.00;9.05;;;;;;;5.50;99.18;98213.44;1764278;81;21360;-69
2020/12/25 00:54:36;;;;;;;13.40;9.50;;;;;;;5.51;99.08;98217.70;1804973;79;21564;-69
2020/12/25 00:57:06;;;;;;;14.25;8.70;;;;;;;5.52;99.04;98216.83;1798685;79;21131;-70
2020/12/25 00:59:39;;;;;;;13.35;8.38;;;;;;;5.52;98.88;98218.97;1793930;79;21131;-69
2020/12/25 01:02:07;;;;;;;12.90;8.38;;;;;;;5.50;98.79;98216.86;1799133;79;21131;-69
2020/12/25 01:04:34;;;;;;;13.40;8.30;;;;;;;5.50;98.69;98208.28;1799407;79;22133;-69
2020/12/25 01:07:06;;;;;;;13.55;8.33;;;;;;;5.51;98.33;98207.38;1799306;79;21131;-69
2020/12/25 01:09:34;;;;;;;14.38;8.90;;;;;;;5.51;98.20;98204.36;1799288;79;21113;-69
2020/12/25 01:12:01;;;;;;;12.43;8.38;;;;;;;5.53;98.12;98209.49;1799125;79;21068;-69
2020/12/25 01:14:30;;;;;;;14.98;8.43;;;;;;;5.52;97.93;98201.37;1799178;79;21060;-69
2020/12/25 01:16:57;;;;;;;14.20;9.00;;;;;;;5.52;97.81;98206.52;1799396;79;21331;-70
2020/12/25 01:19:26;;;;;;;13.28;8.63;;;;;;;5.52;97.80;98209.09;1799156;79;21127;-69
2020/12/25 01:21:53;;;;;;;14.40;8.68;;;;;;;5.52;97.73;98207.81;1799479;79;21127;-69
2020/12/25 01:24:21;;;;;;;12.98;8.73;;;;;;;5.50;97.65;98203.97;1799099;79;21402;-69
2020/12/25 01:26:49;;;;;;;12.93;8.10;;;;;;;5.49;97.59;98202.28;1799448;79;21052;-69
2020/12/25 01:29:16;;;;;;;13.90;8.30;;;;;;;5.50;97.47;98204.41;1799008;79;21145;-69
2020/12/25 01:31:45;;;;;;;15.78;8.50;;;;;;;5.50;97.46;98196.69;1799069;78;21143;-70
2020/12/25 01:34:14;;;;;;;13.45;7.92;;;;;;;5.49;97.39;98190.69;1799012;79;21144;-69
2020/12/25 01:36:41;;;;;;;11.93;7.75;;;;;;;5.48;97.39;98192.03;1799240;79;21088;-69
2020/12/25 01:39:08;;;;;;;11.57;7.25;;;;;;;5.48;97.34;98189.00;1799165;79;21508;-69
2020/12/25 01:41:36;;;;;;;13.28;7.60;;;;;;;5.50;97.34;98203.13;1799506;79;21366;-69
2020/12/25 01:44:03;;;;;;;10.23;7.53;;;;;;;5.49;97.24;98200.16;1797756;79;21136;-70
2020/12/25 01:46:31;;;;;;;11.45;7.28;;;;;;;5.49;97.19;98195.84;1796094;80;21113;-69
2020/12/25 01:48:59;;;;;;;8.53;6.70;;;;;;;5.49;97.11;98185.53;1763762;81;21513;-69
2020/12/25 01:51:26;;;;;;;10.78;7.15;;;;;;;5.49;97.14;98195.84;1796277;79;21112;-70
2020/12/25 01:53:54;;;;;;;10.28;7.25;;;;;;;5.52;97.17;98197.50;1796288;80;22614;-69
2020/12/25 01:56:21;;;;;;;10.72;6.97;;;;;;;5.52;97.08;98197.05;1742090;81;22202;-69
2020/12/25 01:58:49;;;;;;;12.53;8.30;;;;;;;5.51;97.08;98194.50;1796195;80;21056;-69
2020/12/25 02:01:16;;;;;;;10.63;7.22;;;;;;;5.50;97.12;98202.68;1795972;79;21127;-69
2020/12/25 02:03:44;;;;;;;10.38;7.25;;;;;;;5.50;97.17;98197.97;1742489;81;21116;-72
2020/12/25 02:06:12;;;;;;;11.83;7.12;;;;;;;5.48;97.15;98201.89;1796181;79;21378;-69
2020/12/25 02:08:39;;;;;;;12.18;7.55;;;;;;;5.46;97.25;98200.27;1718107;81;21084;-69
2020/12/25 02:11:07;;;;;;;11.12;8.03;;;;;;;5.44;97.28;98196.88;1796323;79;21060;-69
2020/12/25 02:13:35;;;;;;;10.95;8.00;;;;;;;5.45;97.47;98201.16;1763737;81;21169;-69
2020/12/25 02:16:03;;;;;;;12.43;8.68;;;;;;;5.45;97.41;98195.56;1796342;79;21152;-70
2020/12/25 02:18:37;;;;;;;10.38;8.28;;;;;;;5.46;97.45;98200.27;1763931;81;21199;-69
2020/12/25 02:21:05;;;;;;;11.97;8.05;;;;;;;5.46;97.37;98202.39;1796259;79;21120;-70
2020/12/25 02:23:32;;;;;;;10.00;7.80;;;;;;;5.47;97.39;98204.53;1763831;80;21148;-70
2020/12/25 02:26:00;;;;;;;14.13;7.92;;;;;;;5.49;97.24;98209.18;1796424;79;21068;-70
2020/12/25 02:28:27;;;;;;;11.78;7.97;;;;;;;5.49;97.28;98204.86;1763549;80;21141;-70
2020/12/25 02:30:55;;;;;;;11.55;8.48;;;;;;;5.52;97.19;98210.39;1796265;79;21377;-70
2020/12/25 02:33:24;;;;;;;10.65;8.15;;;;;;;5.54;97.13;98208.59;1795721;79;21785;-70
2020/12/25 02:35:53;;;;;;;12.73;8.45;;;;;;;5.53;96.97;98206.91;1763895;81;21152;-70
2020/12/25 02:38:20;;;;;;;14.15;8.95;;;;;;;5.52;96.93;98209.09;1796112;79;21124;-69
2020/12/25 02:40:48;;;;;;;12.18;8.30;;;;;;;5.51;96.95;98208.67;1796314;79;21183;-70
2020/12/25 02:43:15;;;;;;;12.45;8.48;;;;;;;5.51;96.97;98216.41;1796299;79;22112;-70
2020/12/25 02:45:43;;;;;;;11.95;8.80;;;;;;;5.52;97.00;98216.38;1783890;79;21208;-69
2020/12/25 02:48:11;;;;;;;11.40;8.55;;;;;;;5.53;97.02;98212.07;1783392;80;21054;-70
2020/12/25 02:50:39;;;;;;;14.20;9.25;;;;;;;5.55;97.13;98214.14;1783420;80;21113;-70
2020/12/25 02:53:07;;;;;;;14.78;9.08;;;;;;;5.55;97.00;98218.85;1783594;80;21136;-72
2020/12/25 02:55:34;;;;;;;13.18;9.08;;;;;;;5.54;96.96;98222.77;1783443;80;21375;-69
2020/12/25 02:58:01;;;;;;;13.43;8.83;;;;;;;5.53;97.00;98223.67;1783372;80;21073;-69
2020/12/25 03:00:30;;;;;;;11.45;8.48;;;;;;;5.51;97.19;98221.11;1783332;80;21347;-70
2020/12/25 03:02:57;;;;;;;12.03;8.88;;;;;;;5.52;96.95;98224.12;1783326;80;21061;-70
2020/12/25 03:05:26;;;;;;;12.30;9.10;;;;;;;5.53;96.78;98222.38;1781459;80;21180;-69
2020/12/25 03:07:54;;;;;;;11.20;8.55;;;;;;;5.54;96.67;98226.64;1783315;80;21431;-70
2020/12/25 03:10:21;;;;;;;11.88;8.93;;;;;;;5.56;96.78;98233.88;1783358;80;21133;-70
2020/12/25 03:12:49;;;;;;;11.68;8.05;;;;;;;5.55;96.47;98234.32;1783205;80;21057;-69
2020/12/25 03:15:16;;;;;;;15.13;9.03;;;;;;;5.53;96.38;98238.69;1783389;80;21156;-69
2020/12/25 03:17:44;;;;;;;13.22;8.63;;;;;;;5.53;96.16;98239.13;1783425;80;21110;-70
2020/12/25 03:20:11;;;;;;;12.82;8.50;;;;;;;5.52;96.11;98236.16;1783399;80;22069;-70
2020/12/25 03:22:38;;;;;;;10.60;8.55;;;;;;;5.54;96.14;98245.97;1783461;80;21561;-69
2020/12/25 03:25:06;;;;;;;11.80;8.03;;;;;;;5.53;96.01;98250.29;1783512;80;21132;-70
2020/12/25 03:27:33;;;;;;;10.32;8.28;;;;;;;5.50;96.20;98243.92;1783523;80;21132;-70
2020/12/25 03:30:02;;;;;;;10.78;7.67;;;;;;;5.46;95.92;98237.64;1783173;80;21062;-70
2020/12/25 03:32:29;;;;;;;9.33;7.62;;;;;;;5.43;95.78;98243.71;1783407;80;22596;-70
2020/12/25 03:34:57;;;;;;;11.15;8.40;;;;;;;5.40;95.76;98237.38;1783464;80;21573;-69
2020/12/25 03:37:24;;;;;;;10.60;8.68;;;;;;;5.37;95.68;98231.48;1783194;80;21628;-69
2020/12/25 03:39:51;;;;;;;10.43;7.75;;;;;;;5.36;95.51;98228.48;1783503;80;21062;-70
2020/12/25 03:42:19;;;;;;;11.60;8.00;;;;;;;5.34;95.54;98238.84;1783318;80;21077;-70
2020/12/25 03:44:46;;;;;;;11.75;8.63;;;;;;;5.36;95.33;98242.20;1761414;81;21788;-69
2020/12/25 03:47:14;;;;;;;11.20;8.93;;;;;;;5.35;95.07;98250.83;1796282;79;21576;-70
2020/12/25 03:49:41;;;;;;;11.80;8.40;;;;;;;5.35;95.04;98261.59;1796366;79;21195;-69
2020/12/25 03:52:09;;;;;;;10.23;7.65;;;;;;;5.34;94.71;98263.33;1763567;81;21062;-69
2020/12/25 03:54:37;;;;;;;9.68;7.30;;;;;;;5.33;94.78;98268.08;1796364;79;21172;-69
2020/12/25 03:57:04;;;;;;;10.65;7.58;;;;;;;5.33;94.93;98271.11;1796363;79;21427;-70
2020/12/25 03:59:32;;;;;;;10.82;8.28;;;;;;;5.35;94.88;98276.60;1796134;79;21171;-70
2020/12/25 04:01:59;;;;;;;9.78;7.40;;;;;;;5.35;94.87;98287.36;1796244;79;21061;-69
2020/12/25 04:04:27;;;;;;;8.58;6.60;;;;;;;5.33;94.65;98300.73;1763526;81;21062;-70
2020/12/25 04:06:55;;;;;;;7.12;6.20;;;;;;;5.29;94.46;98298.71;1796297;79;21604;-71
2020/12/25 04:09:22;;;;;;;5.22;4.72;;;;;;;5.23;93.69;98315.63;1796071;79;21205;-70
2020/12/25 04:11:50;;;;;;;6.22;5.35;;;;;;;5.12;92.32;98315.92;1763718;80;21093;-69
2020/12/25 04:14:18;;;;;;;5.08;4.58;;;;;;;4.95;90.90;98322.83;1796083;79;21486;-69
2020/12/25 04:16:45;;;;;;;4.85;4.17;;;;;;;4.80;90.43;98327.56;1763670;81;21129;-70
2020/12/25 04:19:12;;;;;;;3.60;3.30;;;;;;;4.66;90.53;98339.06;1796152;79;21183;-70
2020/12/25 04:21:40;;;;;;;2.40;1.98;;;;;;;4.54;90.93;98350.98;1796288;79;22153;-69
2020/12/25 04:24:08;;;;;;;1.42;1.30;;;;;;;4.40;86.90;98356.91;1796010;79;21097;-71
2020/12/25 04:26:36;;;;;;;1.47;1.35;;;;;;;4.18;84.34;98372.86;1763763;81;21136;-69
2020/12/25 04:29:03;;;;;;;1.05;1.00;;;;;;;4.02;85.55;98377.96;1796107;79;21180;-68
2020/12/25 04:31:31;;;;;;;0.93;0.80;;;;;;;3.90;83.40;98383.37;1796082;79;21152;-69
2020/12/25 04:33:58;;;;;;;0.80;0.80;;;;;;;3.74;83.56;98388.45;1796416;79;22221;-69
2020/12/25 04:36:28;;;;;;;0.70;0.70;;;;;;;3.64;83.41;98393.39;1795391;79;21111;-68
2020/12/25 04:38:55;;;;;;;0.80;0.80;;;;;;;3.51;82.74;98394.08;1763713;80;21109;-69
2020/12/25 04:41:23;;;;;;;0.90;0.90;;;;;;;3.37;82.27;98393.51;1796223;79;21156;-68
2020/12/25 04:43:51;;;;;;;0.70;0.70;;;;;;;3.22;82.85;98408.78;1796340;78;21136;-68
2020/12/25 04:46:18;;;;;;;1.65;1.10;;;;;;;3.07;83.29;98412.48;1796993;79;21380;-69
2020/12/25 04:48:46;;;;;;;0.80;0.80;;;;;;;2.93;83.95;98411.45;1764958;80;21137;-69
2020/12/25 04:51:14;;;;;;;0.80;0.80;;;;;;;2.83;83.97;98414.22;1765473;80;21133;-69
2020/12/25 04:53:42;;;;;;;0.93;0.80;;;;;;;2.77;84.69;98412.16;1791825;80;21061;-69
2020/12/25 04:56:09;;;;;;;1.02;0.93;;;;;;;2.76;84.73;98422.45;1791739;80;21584;-69
2020/12/25 04:58:39;;;;;;;0.90;0.90;;;;;;;2.77;85.17;98424.15;1791510;80;21429;-68
2020/12/25 05:01:08;;;;;;;0.88;0.88;;;;;;;2.79;85.46;98423.23;1791671;80;21139;-69
2020/12/25 05:03:40;;;;;;;0.80;0.80;;;;;;;2.83;85.64;98424.05;1791622;80;21180;-69
2020/12/25 05:06:11;;;;;;;1.82;0.70;;;;;;;2.86;85.65;98430.40;1791841;80;21068;-70
2020/12/25 05:08:45;;;;;;;1.07;0.80;;;;;;;2.89;85.82;98438.50;1791597;80;21120;-69
2020/12/25 05:11:16;;;;;;;1.20;1.10;;;;;;;2.91;85.94;98441.88;1791825;80;21253;-68
2020/12/25 05:13:51;;;;;;;1.35;1.25;;;;;;;2.94;85.64;98436.68;1791006;80;21159;-69
2020/12/25 05:16:22;;;;;;;2.60;2.40;;;;;;;2.94;85.52;98432.39;1791511;80;21084;-68
2020/12/25 05:18:51;;;;;;;2.37;2.17;;;;;;;2.97;85.67;98435.36;1791671;80;21148;-69
2020/12/25 05:21:20;;;;;;;3.20;2.80;;;;;;;3.01;85.80;98439.55;1791634;80;21124;-70
2020/12/25 05:23:49;;;;;;;2.65;2.45;;;;;;;3.03;86.00;98436.55;1767490;81;21534;-69
2020/12/25 05:26:18;;;;;;;2.20;1.92;;;;;;;3.04;85.92;98436.50;1791524;80;21131;-69
2020/12/25 05:28:50;;;;;;;4.45;3.70;;;;;;;3.07;86.09;98444.58;1791202;80;21112;-69
2020/12/25 05:31:18;;;;;;;2.75;2.30;;;;;;;3.08;85.95;98446.70;1791653;80;21060;-70
2020/12/25 05:33:50;;;;;;;2.35;2.10;;;;;;;3.08;85.66;98450.12;1791589;79;21128;-69
2020/12/25 05:36:17;;;;;;;4.40;2.33;;;;;;;3.09;85.84;98460.80;1791643;80;21205;-69
2020/12/25 05:38:49;;;;;;;2.60;2.10;;;;;;;3.08;85.94;98464.69;1791625;79;21129;-69
2020/12/25 05:41:17;;;;;;;3.65;2.20;;;;;;;3.08;86.04;98460.39;1791606;80;21119;-72
2020/12/25 05:43:50;;;;;;;1.87;1.67;;;;;;;3.07;86.21;98462.55;1791617;79;21140;-69
2020/12/25 05:46:17;;;;;;;3.00;2.40;;;;;;;3.06;85.98;98471.98;1799173;79;21149;-72
2020/12/25 05:48:51;;;;;;;4.33;3.42;;;;;;;3.03;86.12;98468.63;1799406;79;21131;-69
2020/12/25 05:51:21;;;;;;;3.22;2.60;;;;;;;3.02;86.53;98475.49;1767202;81;21108;-69
2020/12/25 05:53:49;;;;;;;3.10;2.30;;;;;;;3.00;86.71;98481.50;1791652;80;21093;-69
2020/12/25 05:56:17;;;;;;;2.37;2.17;;;;;;;3.00;86.79;98483.63;1791671;80;21584;-70
2020/12/25 05:58:45;;;;;;;2.33;2.10;;;;;;;2.99;87.01;98481.95;1791537;80;21171;-69
2020/12/25 06:01:13;;;;;;;2.65;2.45;;;;;;;3.00;87.28;98485.36;1765100;80;21369;-69
2020/12/25 06:03:40;;;;;;;2.45;2.25;;;;;;;2.99;87.61;98490.92;1765071;80;21124;-69
2020/12/25 06:06:13;;;;;;;3.20;2.83;;;;;;;2.99;87.59;98499.91;1791713;79;21053;-70
2020/12/25 06:08:59;;;;;;;2.60;2.40;;;;;;;2.99;87.64;98507.62;1791608;80;21132;-69
2020/12/25 06:11:30;;;;;;;3.02;2.72;;;;;;;2.98;87.60;98511.06;1791664;80;21096;-68
2020/12/25 06:13:58;;;;;;;3.22;2.92;;;;;;;2.96;87.73;98514.53;1791798;80;22158;-71
2020/12/25 06:16:29;;;;;;;2.65;2.45;;;;;;;2.93;87.83;98530.81;1791613;79;21755;-71
2020/12/25 06:19:08;;;;;;;2.70;2.15;;;;;;;2.90;87.81;98530.87;1765234;80;21112;-70
2020/12/25 06:22:01;;;;;;;2.47;2.27;;;;;;;2.89;87.90;98531.75;1791597;80;21108;-69
2020/12/25 06:24:34;;;;;;;2.15;1.95;;;;;;;2.87;88.13;98539.05;1791659;80;21069;-70
2020/12/25 06:27:03;;;;;;;1.82;1.72;;;;;;;2.85;88.00;98540.80;1791723;80;21354;-69
2020/12/25 06:29:31;;;;;;;1.85;1.70;;;;;;;2.84;88.08;98541.23;1740505;80;21076;-69
2020/12/25 06:32:00;;;;;;;1.30;1.20;;;;;;;2.82;87.96;98542.99;1791790;80;21041;-70
2020/12/25 06:34:45;;;;;;;1.30;1.20;;;;;;;2.83;87.78;98536.98;1791754;80;21061;-70
2020/12/25 06:37:14;;;;;;;1.72;1.60;;;;;;;2.82;87.50;98553.26;1791666;80;21140;-68
2020/12/25 06:39:52;;;;;;;1.47;1.37;;;;;;;2.80;87.52;98553.72;1791653;80;21861;-69
2020/12/25 06:42:33;;;;;;;1.60;1.50;;;;;;;2.80;87.60;98561.42;1799594;79;21081;-69
2020/12/25 06:45:01;;;;;;;1.65;1.55;;;;;;;2.79;87.34;98566.12;1799437;79;21072;-69
2020/12/25 06:47:37;;;;;;;1.30;1.20;;;;;;;2.79;87.43;98576.38;1791632;80;21068;-69
2020/12/25 06:50:15;;;;;;;1.75;1.65;;;;;;;2.79;87.57;98587.94;1792194;80;27092;-70
2020/12/25 06:52:56;;;;;;;2.45;2.15;;;;;;;2.82;87.49;98596.05;1791579;80;21424;-69
2020/12/25 06:55:25;;;;;;;3.02;2.30;;;;;;;2.82;87.53;98598.17;1791670;80;21121;-69
2020/12/25 06:57:54;;;;;;;2.25;1.75;;;;;;;2.85;87.54;98600.69;1791785;80;21586;-69
2020/12/25 07:00:22;;;;;;;2.30;1.95;;;;;;;2.86;87.04;98606.66;1791656;80;21081;-72
2020/12/25 07:02:50;;;;;;;3.02;1.90;;;;;;;2.87;87.05;98613.08;1791828;80;21128;-69
2020/12/25 07:05:18;;;;;;;2.33;1.90;;;;;;;2.88;86.90;98614.77;1791687;80;21201;-69
2020/12/25 07:07:47;;;;;;;2.30;1.80;;;;;;;2.88;86.45;98610.92;1791476;79;21178;-69
2020/12/25 07:10:15;;;;;;;5.45;4.33;;;;;;;2.89;86.36;98614.34;1791794;79;21180;-69
2020/12/25 07:12:43;;;;;;;4.28;3.02;;;;;;;2.89;86.28;98613.90;1791807;80;21665;-70
2020/12/25 07:15:10;;;;;;;7.60;3.85;;;;;;;2.91;86.06;98621.57;1791785;80;21072;-69
2020/12/25 07:17:38;;;;;;;8.03;3.75;;;;;;;2.91;86.08;98628.84;1791721;80;21887;-69
2020/12/25 07:20:09;;;;;;;7.35;3.77;;;;;;;2.92;85.74;98636.09;1791499;80;21155;-69
2020/12/25 07:22:37;;;;;;;2.27;1.85;;;;;;;2.93;85.85;98637.36;1791858;80;21540;-68
2020/12/25 07:25:08;;;;;;;2.50;2.10;;;;;;;2.95;85.98;98642.05;1791754;80;21147;-69
2020/12/25 07:27:36;;;;;;;2.70;2.33;;;;;;;2.98;86.16;98647.13;1765203;80;21580;-68
2020/12/25 07:30:05;;;;;;;3.30;2.47;;;;;;;3.03;86.17;98658.63;1791822;80;21208;-68
2020/12/25 07:32:32;;;;;;;3.02;2.50;;;;;;;3.03;85.89;98654.34;1799393;79;21100;-69
2020/12/25 07:35:05;;;;;;;4.40;3.20;;;;;;;3.04;85.69;98654.75;1765426;80;21207;-69
2020/12/25 07:37:33;;;;;;;2.30;2.10;;;;;;;3.02;85.90;98658.19;1791332;80;21612;-69
2020/12/25 07:40:06;;;;;;;1.72;1.50;;;;;;;3.01;85.52;98659.91;1791792;80;21060;-69
2020/12/25 07:42:34;;;;;;;1.30;1.20;;;;;;;2.98;85.69;98657.40;1767198;81;21286;-69
2020/12/25 07:45:02;;;;;;;2.20;1.40;;;;;;;2.97;85.46;98667.27;1767976;81;21667;-69
2020/12/25 07:47:29;;;;;;;2.15;2.00;;;;;;;2.96;85.83;98671.14;1761621;81;21062;-69
2020/12/25 07:49:59;;;;;;;11.65;7.22;;;;;;;2.99;85.97;98681.36;1791665;80;21144;-69
2020/12/25 07:52:26;;;;;;;2.77;2.37;;;;;;;3.00;86.13;98676.19;1765926;80;21545;-69
2020/12/25 07:54:55;;;;;;;1.27;1.17;;;;;;;3.02;85.78;98677.05;1786750;80;21324;-69
2020/12/25 07:57:23;;;;;;;13.32;6.58;;;;;;;3.02;86.05;98680.89;1791576;80;21192;-68
2020/12/25 07:59:51;;;;;;;1.60;1.50;;;;;;;3.03;86.09;98689.00;1791619;80;21594;-69
2020/12/25 08:02:18;;;;;;;1.90;1.57;;;;;;;3.03;86.55;98689.00;1791974;80;21060;-69
2020/12/25 08:04:46;;;;;;;1.10;1.00;;;;;;;3.02;86.88;98703.13;1791628;80;21489;-69
2020/12/25 08:07:13;;;;;;;5.33;2.20;;;;;;;3.00;86.78;98711.29;1791583;80;21369;-69
2020/12/25 08:09:43;;;;;;;1.80;1.70;;;;;;;2.98;87.11;98713.88;1791505;80;21105;-68
2020/12/25 08:12:10;;;;;;;2.45;2.10;;;;;;;2.98;87.37;98716.45;1791860;79;21592;-69
2020/12/25 08:14:38;;;;;;;2.27;2.08;;;;;;;3.00;87.71;98717.27;1791509;80;21100;-69
2020/12/25 08:17:09;;;;;;;2.90;2.22;;;;;;;3.06;88.00;98723.61;1791705;80;21593;-69
2020/12/25 08:19:37;;;;;;;2.98;2.10;;;;;;;3.11;87.87;98719.71;1791498;80;21353;-69
2020/12/25 08:22:08;;;;;;;2.02;1.82;;;;;;;3.16;87.39;98720.91;1791657;80;21187;-69
2020/12/25 08:24:36;;;;;;;3.52;2.75;;;;;;;3.16;86.87;98733.75;1791570;80;21120;-69
2020/12/25 08:27:04;;;;;;;2.70;2.30;;;;;;;3.19;87.20;98716.59;1740321;80;21167;-70
2020/12/25 08:29:32;;;;;;;2.15;1.95;;;;;;;3.24;86.67;98726.78;1791755;80;21064;-70
2020/12/25 08:32:09;;;;;;;2.20;1.47;;;;;;;3.26;85.67;98736.63;1791670;80;22310;-68
2020/12/25 08:34:37;;;;;;;3.95;2.42;;;;;;;3.28;86.15;98735.72;1791624;80;21119;-69
2020/12/25 08:37:07;;;;;;;3.62;3.00;;;;;;;3.30;86.17;98739.55;1791694;80;21148;-68
2020/12/25 08:39:35;;;;;;;1.60;1.47;;;;;;;3.34;85.82;98751.49;1791459;80;21139;-69
2020/12/25 08:42:03;;;;;;;2.67;1.65;;;;;;;3.39;85.39;98743.70;1791750;80;21067;-69
2020/12/25 08:44:30;;;;;;;2.52;1.70;;;;;;;3.38;85.05;98743.29;1791389;80;22113;-69
2020/12/25 08:47:08;;;;;;;2.00;1.70;;;;;;;3.37;85.06;98750.16;1796074;79;21148;-68
2020/12/25 08:49:36;;;;;;;3.52;2.35;;;;;;;3.40;84.90;98748.84;1799289;79;21113;-70
2020/12/25 08:52:21;;;;;;;4.72;3.50;;;;;;;3.44;84.97;98750.91;1799289;78;21171;-69
2020/12/25 08:54:58;;;;;;;2.80;2.60;;;;;;;3.45;84.87;98755.17;1798386;79;21070;-71
2020/12/25 08:57:25;;;;;;;2.10;1.70;;;;;;;3.46;85.25;98753.02;1799461;79;22217;-69
2020/12/25 09:00:05;;;;;;;1.55;1.45;;;;;;;3.50;85.29;98758.10;1799112;79;21191;-70
2020/12/25 09:02:32;;;;;;;2.87;1.32;;;;;;;3.56;84.93;98761.02;1799270;79;21053;-70
2020/12/25 09:05:00;;;;;;;1.52;1.42;;;;;;;3.58;84.66;98770.83;1799357;79;21092;-70
2020/12/25 09:07:28;;;;;;;0.90;0.90;;;;;;;3.59;85.11;98768.67;1799294;79;21107;-71
2020/12/25 09:09:56;;;;;;;1.98;1.50;;;;;;;3.63;84.61;98776.77;1799365;79;22207;-70
2020/12/25 09:12:23;;;;;;;1.70;1.60;;;;;;;3.63;84.45;98769.05;1799358;79;21668;-69
2020/12/25 09:14:51;;;;;;;1.80;1.70;;;;;;;3.61;84.66;98772.91;1799039;78;21168;-70
2020/12/25 09:17:18;;;;;;;1.90;1.80;;;;;;;3.64;84.84;98771.19;1799109;78;21061;-70
2020/12/25 09:19:46;;;;;;;1.67;1.57;;;;;;;3.67;84.73;98778.84;1799047;79;21147;-70
2020/12/25 09:22:14;;;;;;;1.00;1.00;;;;;;;3.67;84.58;98782.70;1799318;79;21375;-71
2020/12/25 09:24:41;;;;;;;1.75;1.60;;;;;;;3.66;84.40;98780.56;1798867;78;21080;-70
2020/12/25 09:27:09;;;;;;;1.35;1.22;;;;;;;3.65;84.58;98784.45;1799246;78;21060;-69
2020/12/25 09:29:37;;;;;;;1.67;1.55;;;;;;;3.64;84.56;98781.47;1799015;79;37708;-70
2020/12/25 09:32:04;;;;;;;1.52;1.42;;;;;;;3.63;84.67;98785.77;1799224;79;21107;-70
2020/12/25 09:34:32;;;;;;;2.35;1.82;;;;;;;3.61;84.47;98784.91;1799320;78;21159;-72
2020/12/25 09:37:00;;;;;;;1.70;1.50;;;;;;;3.59;84.75;98784.09;1798907;79;21172;-69
2020/12/25 09:39:29;;;;;;;0.90;0.82;;;;;;;3.62;84.77;98778.89;1794244;79;21080;-69
2020/12/25 09:41:56;;;;;;;1.07;0.98;;;;;;;3.64;84.71;98784.03;1799239;79;21144;-70
2020/12/25 09:44:24;;;;;;;0.78;0.78;;;;;;;3.64;83.62;98799.02;1799345;79;21186;-70
2020/12/25 09:46:51;;;;;;;2.35;1.02;;;;;;;3.65;84.02;98796.02;1798970;78;22236;-70
2020/12/25 09:49:18;;;;;;;0.98;0.70;;;;;;;3.67;83.44;98794.26;1799385;79;21521;-70
2020/12/25 09:51:46;;;;;;;1.50;1.00;;;;;;;3.69;83.24;98789.94;1799204;79;21099;-69
2020/12/25 09:54:13;;;;;;;0.80;0.70;;;;;;;3.75;83.39;98793.27;1799252;78;21179;-70
2020/12/25 09:56:40;;;;;;;1.42;1.20;;;;;;;3.79;82.53;98794.09;1799212;79;21064;-70
2020/12/25 09:59:08;;;;;;;1.57;1.42;;;;;;;3.78;82.37;98792.36;1799214;78;21451;-70
2020/12/25 10:01:36;;;;;;;1.20;1.10;;;;;;;3.80;80.64;98788.06;1799220;78;21564;-70
2020/12/25 10:04:04;;;;;;;0.93;0.70;;;;;;;3.86;81.17;98794.41;1799320;79;21148;-70
2020/12/25 10:06:31;;;;;;;0.95;0.90;;;;;;;3.94;80.95;98792.56;1799273;79;21068;-70
2020/12/25 10:08:59;;;;;;;1.20;0.85;;;;;;;4.02;80.50;98802.72;1799349;79;21072;-70
2020/12/25 10:11:26;;;;;;;1.10;0.80;;;;;;;4.09;79.61;98792.75;1799338;79;22305;-70
2020/12/25 10:13:54;;;;;;;0.70;0.70;;;;;;;4.14;79.73;98799.93;1799089;79;21187;-70
2020/12/25 10:16:21;;;;;;;1.72;1.42;;;;;;;4.17;78.39;98802.03;1799269;79;21048;-70
2020/12/25 10:18:49;;;;;;;1.65;1.50;;;;;;;4.15;78.58;98802.47;1798964;79;21096;-69
2020/12/25 10:21:18;;;;;;;1.87;1.30;;;;;;;4.10;78.93;98815.02;1799240;78;21593;-69
2020/12/25 10:23:45;;;;;;;1.07;0.98;;;;;;;4.02;79.30;98797.14;1799222;79;21433;-70
2020/12/25 10:26:13;;;;;;;1.07;0.90;;;;;;;3.96;79.84;98804.95;1799330;79;21080;-73
2020/12/25 10:28:42;;;;;;;2.27;0.90;;;;;;;3.92;79.23;98826.42;1799548;79;21080;-69
2020/12/25 10:31:10;;;;;;;0.95;0.90;;;;;;;3.92;79.65;98806.29;1799492;79;21056;-69
2020/12/25 10:33:38;;;;;;;2.25;0.82;;;;;;;3.97;79.62;98811.78;1799359;79;21207;-70
2020/12/25 10:36:07;;;;;;;0.85;0.80;;;;;;;4.00;79.62;98819.44;1799313;79;21378;-69
2020/12/25 10:38:36;;;;;;;1.35;1.00;;;;;;;4.02;78.98;98816.42;1799335;79;21152;-73
2020/12/25 10:41:06;;;;;;;1.55;1.25;;;;;;;4.05;79.95;98816.80;1799343;79;21143;-70
2020/12/25 10:43:33;;;;;;;1.10;0.90;;;;;;;4.12;79.96;98820.98;1799370;79;21068;-69
2020/12/25 10:46:00;;;;;;;1.67;1.40;;;;;;;4.15;79.69;98824.33;1799379;79;21120;-69
2020/12/25 10:48:28;;;;;;;1.90;0.90;;;;;;;4.16;79.79;98826.06;1783933;79;21742;-70
2020/12/25 10:50:55;;;;;;;1.15;0.80;;;;;;;4.18;79.86;98814.02;1783415;80;21155;-69
2020/12/25 10:53:23;;;;;;;1.80;1.70;;;;;;;4.21;80.09;98822.10;1783586;80;21050;-69
2020/12/25 10:55:50;;;;;;;1.60;1.50;;;;;;;4.23;79.68;98827.22;1783206;80;21073;-69
2020/12/25 10:58:18;;;;;;;2.90;2.35;;;;;;;4.23;79.84;98825.94;1783473;80;21153;-69
2020/12/25 11:00:45;;;;;;;2.60;1.72;;;;;;;4.24;80.43;98830.23;1783408;80;21428;-69
2020/12/25 11:03:13;;;;;;;2.77;1.52;;;;;;;4.24;80.00;98823.36;1759833;81;21057;-69
2020/12/25 11:06:00;;;;;;;1.37;1.10;;;;;;;4.22;80.25;98826.81;1729491;83;21107;-70
2020/12/25 11:08:30;;;;;;;1.60;1.40;;;;;;;4.16;80.42;98820.91;1759915;81;21116;-70
2020/12/25 11:11:04;;;;;;;3.45;1.50;;;;;;;4.14;80.58;98823.08;1783639;79;21168;-70
2020/12/25 11:13:34;;;;;;;1.57;0.93;;;;;;;4.06;80.12;98821.07;1783353;80;21501;-69
2020/12/25 11:16:02;;;;;;;0.90;0.90;;;;;;;4.01;80.38;98831.89;1783384;80;21823;-69
2020/12/25 11:18:32;;;;;;;1.92;1.50;;;;;;;3.99;80.65;98840.89;1782551;80;21197;-70
2020/12/25 11:20:59;;;;;;;1.40;1.30;;;;;;;4.00;81.34;98849.01;1757708;80;21180;-69
2020/12/25 11:23:26;;;;;;;1.70;1.50;;;;;;;4.03;81.50;98850.27;1782195;80;21156;-71
2020/12/25 11:25:54;;;;;;;3.52;2.00;;;;;;;4.04;81.70;98840.39;1782217;80;21171;-70
2020/12/25 11:28:22;;;;;;;3.77;2.25;;;;;;;4.03;81.07;98850.27;1781593;80;21125;-71
2020/12/25 11:30:49;;;;;;;1.87;1.65;;;;;;;3.99;81.68;98855.03;1782863;80;21062;-69
2020/12/25 11:33:17;;;;;;;1.80;1.70;;;;;;;3.96;81.77;98854.24;1781915;80;21619;-70
2020/12/25 11:35:45;;;;;;;1.35;1.25;;;;;;;3.99;82.05;98855.47;1783000;79;21578;-70
2020/12/25 11:38:12;;;;;;;7.12;5.05;;;;;;;4.04;81.95;98855.82;1783161;80;22198;-69
2020/12/25 11:40:40;;;;;;;2.33;2.10;;;;;;;4.11;81.69;98858.72;1783210;79;21077;-70
2020/12/25 11:43:08;;;;;;;2.67;1.92;;;;;;;4.13;81.43;98858.24;1783240;80;21141;-69
2020/12/25 11:45:35;;;;;;;3.87;2.17;;;;;;;4.13;81.40;98860.81;1783103;80;21137;-70